THY4XL LTFM-EDDM
Flight info
| Callsign | THY4XL |
|---|---|
| Flight time | 2h 3m |
| Altitude | 40000 |
| Route | VADEN1D/35L VADEN DCT BAKLO DCT XANEX DCT BESLI DCT UTEKA DCT BABIT DCT GOTAR DCT AMADI Q113 NAPSA NAPSA1B |
| Aircraft | A339/H-SADE1E2E3GHIJ3J5M1P2RWXY/LB2D1 |
Departure
| Time | 2026-05-05 18:37 |
|---|---|
| Airport | İstanbul Airport (LTFM) |
Arrival
| Time | 2026-05-05 20:40 |
|---|---|
| Airport | Munich Airport (EDDM) |
| Time | Latitude | Longitude | Altitude | Speed | Heading |
|---|---|---|---|---|---|
| 2026-05-05 18:10 | 41.26734 | 28.74127 | 319 ft | 0 kts | 90° |
| 2026-05-05 18:25 | 41.26733 | 28.74105 | 318 ft | 3 kts | 89° |
| 2026-05-05 18:25 | 41.26733 | 28.74088 | 318 ft | 3 kts | 89° |
| 2026-05-05 18:25 | 41.26733 | 28.74052 | 316 ft | 3 kts | 59° |
| 2026-05-05 18:25 | 41.26722 | 28.74030 | 315 ft | 3 kts | 20° |
| 2026-05-05 18:26 | 41.26703 | 28.74022 | 315 ft | 3 kts | 9° |
| 2026-05-05 18:26 | 41.26684 | 28.74019 | 316 ft | 3 kts | 358° |
| 2026-05-05 18:26 | 41.26683 | 28.74019 | 316 ft | 0 kts | 358° |
| 2026-05-05 18:30 | 41.26695 | 28.74018 | 315 ft | 8 kts | 358° |
| 2026-05-05 18:30 | 41.26763 | 28.74015 | 317 ft | 11 kts | 358° |
| 2026-05-05 18:30 | 41.26843 | 28.74013 | 319 ft | 12 kts | 359° |
| 2026-05-05 18:31 | 41.26929 | 28.74011 | 318 ft | 13 kts | 359° |
| 2026-05-05 18:31 | 41.27025 | 28.74001 | 317 ft | 14 kts | 340° |
| 2026-05-05 18:31 | 41.27055 | 28.73889 | 316 ft | 14 kts | 268° |
| 2026-05-05 18:31 | 41.27049 | 28.73759 | 316 ft | 15 kts | 267° |
| 2026-05-05 18:32 | 41.27047 | 28.73608 | 316 ft | 17 kts | 269° |
| 2026-05-05 18:32 | 41.27045 | 28.73445 | 316 ft | 18 kts | 269° |
| 2026-05-05 18:32 | 41.27042 | 28.73278 | 316 ft | 18 kts | 269° |
| 2026-05-05 18:32 | 41.27040 | 28.73098 | 314 ft | 20 kts | 269° |
| 2026-05-05 18:33 | 41.26992 | 28.72987 | 316 ft | 10 kts | 187° |
| 2026-05-05 18:33 | 41.26915 | 28.72988 | 317 ft | 13 kts | 179° |
| 2026-05-05 18:33 | 41.26823 | 28.72989 | 318 ft | 14 kts | 180° |
| 2026-05-05 18:33 | 41.26737 | 28.72981 | 319 ft | 9 kts | 199° |
| 2026-05-05 18:34 | 41.26719 | 28.72931 | 321 ft | 4 kts | 263° |
| 2026-05-05 18:34 | 41.26718 | 28.72921 | 321 ft | 0 kts | 266° |
| 2026-05-05 18:34 | 41.26718 | 28.72902 | 322 ft | 6 kts | 266° |
| 2026-05-05 18:35 | 41.26716 | 28.72823 | 328 ft | 8 kts | 269° |
| 2026-05-05 18:35 | 41.26715 | 28.72749 | 330 ft | 9 kts | 269° |
| 2026-05-05 18:35 | 41.26714 | 28.72638 | 329 ft | 15 kts | 269° |
| 2026-05-05 18:35 | 41.26739 | 28.72522 | 327 ft | 11 kts | 328° |
| 2026-05-05 18:36 | 41.26825 | 28.72514 | 326 ft | 28 kts | 357° |
| 2026-05-05 18:36 | 41.27324 | 28.72505 | 320 ft | 113 kts | 358° |
| 2026-05-05 18:36 | 41.28345 | 28.72484 | 315 ft | 176 kts | 359° |
| 2026-05-05 18:36 | 41.29641 | 28.72442 | 880 ft | 190 kts | 358° |
| 2026-05-05 18:37 | 41.30989 | 28.72384 | 1727 ft | 197 kts | 358° |
| 2026-05-05 18:37 | 41.32368 | 28.72330 | 2576 ft | 196 kts | 359° |
| 2026-05-05 18:37 | 41.33720 | 28.72319 | 3345 ft | 194 kts | 360° |
| 2026-05-05 18:37 | 41.35086 | 28.72313 | 4116 ft | 198 kts | 360° |
| 2026-05-05 18:38 | 41.36476 | 28.72297 | 4835 ft | 204 kts | 359° |
| 2026-05-05 18:38 | 41.37936 | 28.72270 | 5355 ft | 217 kts | 359° |
| 2026-05-05 18:38 | 41.39453 | 28.71883 | 5867 ft | 230 kts | 337° |
| 2026-05-05 18:38 | 41.40728 | 28.70510 | 6413 ft | 246 kts | 311° |
| 2026-05-05 18:39 | 41.41597 | 28.68454 | 6841 ft | 263 kts | 298° |
| 2026-05-05 18:39 | 41.42330 | 28.66202 | 7483 ft | 266 kts | 298° |
| 2026-05-05 18:39 | 41.43117 | 28.63959 | 8169 ft | 268 kts | 301° |
| 2026-05-05 18:39 | 41.43994 | 28.61762 | 8863 ft | 270 kts | 303° |
| 2026-05-05 18:40 | 41.44941 | 28.59586 | 9577 ft | 272 kts | 305° |
| 2026-05-05 18:40 | 41.45927 | 28.57414 | 10224 ft | 277 kts | 306° |
| 2026-05-05 18:40 | 41.46972 | 28.55153 | 10437 ft | 297 kts | 306° |
| 2026-05-05 18:40 | 41.48093 | 28.52731 | 10617 ft | 317 kts | 305° |
| 2026-05-05 18:41 | 41.49264 | 28.50180 | 11029 ft | 326 kts | 305° |
| 2026-05-05 18:41 | 41.50445 | 28.47583 | 11623 ft | 329 kts | 305° |
| 2026-05-05 18:41 | 41.51636 | 28.44958 | 12230 ft | 333 kts | 305° |
| 2026-05-05 18:41 | 41.52841 | 28.42302 | 12823 ft | 336 kts | 305° |
| 2026-05-05 18:42 | 41.54060 | 28.39617 | 13425 ft | 340 kts | 305° |
| 2026-05-05 18:42 | 41.55290 | 28.36905 | 13985 ft | 344 kts | 305° |
| 2026-05-05 18:42 | 41.56535 | 28.34161 | 14527 ft | 346 kts | 305° |
| 2026-05-05 18:42 | 41.57788 | 28.31395 | 15049 ft | 349 kts | 304° |
| 2026-05-05 18:43 | 41.59051 | 28.28607 | 15607 ft | 353 kts | 304° |
| 2026-05-05 18:43 | 41.60326 | 28.25788 | 16132 ft | 356 kts | 304° |
| 2026-05-05 18:43 | 41.61608 | 28.22950 | 16663 ft | 359 kts | 304° |
| 2026-05-05 18:43 | 41.62904 | 28.20077 | 17170 ft | 362 kts | 304° |
| 2026-05-05 18:44 | 41.64206 | 28.17190 | 17719 ft | 365 kts | 304° |
| 2026-05-05 18:44 | 41.65522 | 28.14266 | 18240 ft | 368 kts | 304° |
| 2026-05-05 18:44 | 41.66845 | 28.11326 | 18729 ft | 371 kts | 304° |
| 2026-05-05 18:44 | 41.68181 | 28.08353 | 19180 ft | 374 kts | 304° |
| 2026-05-05 18:45 | 41.69524 | 28.05360 | 19659 ft | 377 kts | 303° |
| 2026-05-05 18:45 | 41.70874 | 28.02349 | 20124 ft | 380 kts | 303° |
| 2026-05-05 18:45 | 41.72238 | 27.99305 | 20605 ft | 383 kts | 303° |
| 2026-05-05 18:45 | 41.73611 | 27.96237 | 21080 ft | 386 kts | 303° |
| 2026-05-05 18:46 | 41.74995 | 27.93143 | 21573 ft | 389 kts | 303° |
| 2026-05-05 18:46 | 41.76387 | 27.90026 | 22053 ft | 391 kts | 303° |
| 2026-05-05 18:46 | 41.77788 | 27.86883 | 22543 ft | 394 kts | 303° |
| 2026-05-05 18:46 | 41.79179 | 27.83758 | 23015 ft | 397 kts | 303° |
| 2026-05-05 18:47 | 41.80600 | 27.80566 | 23525 ft | 400 kts | 303° |
| 2026-05-05 18:47 | 41.82030 | 27.77351 | 23960 ft | 403 kts | 303° |
| 2026-05-05 18:47 | 41.83468 | 27.74114 | 24372 ft | 406 kts | 303° |
| 2026-05-05 18:47 | 41.84915 | 27.70850 | 24788 ft | 409 kts | 303° |
| 2026-05-05 18:48 | 41.86372 | 27.67563 | 25189 ft | 412 kts | 303° |
| 2026-05-05 18:48 | 41.87840 | 27.64247 | 25576 ft | 415 kts | 302° |
| 2026-05-05 18:48 | 41.89318 | 27.60905 | 25989 ft | 417 kts | 303° |
| 2026-05-05 18:48 | 41.90799 | 27.57545 | 26354 ft | 420 kts | 301° |
| 2026-05-05 18:49 | 41.92199 | 27.54084 | 26769 ft | 423 kts | 300° |
| 2026-05-05 18:49 | 41.93596 | 27.50599 | 27149 ft | 426 kts | 300° |
| 2026-05-05 18:49 | 41.95025 | 27.47099 | 27539 ft | 429 kts | 301° |
| 2026-05-05 18:49 | 41.96481 | 27.43591 | 27926 ft | 431 kts | 301° |
| 2026-05-05 18:50 | 41.97958 | 27.40068 | 28278 ft | 434 kts | 301° |
| 2026-05-05 18:50 | 41.99448 | 27.36526 | 28641 ft | 437 kts | 301° |
| 2026-05-05 18:50 | 42.00949 | 27.32958 | 29009 ft | 439 kts | 301° |
| 2026-05-05 18:50 | 42.02455 | 27.29372 | 29383 ft | 441 kts | 301° |
| 2026-05-05 18:51 | 42.03967 | 27.25764 | 29749 ft | 444 kts | 301° |
| 2026-05-05 18:51 | 42.05487 | 27.22133 | 30101 ft | 446 kts | 301° |
| 2026-05-05 18:51 | 42.07007 | 27.18491 | 30463 ft | 448 kts | 301° |
| 2026-05-05 18:51 | 42.08533 | 27.14830 | 30832 ft | 449 kts | 301° |
| 2026-05-05 18:52 | 42.10062 | 27.11159 | 31193 ft | 450 kts | 301° |
| 2026-05-05 18:52 | 42.11592 | 27.07482 | 31534 ft | 452 kts | 301° |
| 2026-05-05 18:52 | 42.13131 | 27.03779 | 31875 ft | 454 kts | 301° |
| 2026-05-05 18:52 | 42.14673 | 27.00064 | 32202 ft | 455 kts | 301° |
| 2026-05-05 18:53 | 42.16218 | 26.96335 | 32522 ft | 456 kts | 301° |
| 2026-05-05 18:53 | 42.17766 | 26.92595 | 32802 ft | 458 kts | 301° |
| 2026-05-05 18:53 | 42.19319 | 26.88838 | 33067 ft | 459 kts | 301° |
| 2026-05-05 18:53 | 42.20873 | 26.85074 | 33291 ft | 460 kts | 301° |
| 2026-05-05 18:54 | 42.22427 | 26.81303 | 33497 ft | 460 kts | 301° |
| 2026-05-05 18:54 | 42.23981 | 26.77529 | 33729 ft | 460 kts | 301° |
| 2026-05-05 18:54 | 42.25493 | 26.73850 | 33967 ft | 459 kts | 301° |
| 2026-05-05 18:54 | 42.27077 | 26.69991 | 34205 ft | 458 kts | 301° |
| 2026-05-05 18:55 | 42.28620 | 26.66228 | 34406 ft | 458 kts | 301° |
| 2026-05-05 18:55 | 42.30160 | 26.62469 | 34600 ft | 457 kts | 301° |
| 2026-05-05 18:55 | 42.31696 | 26.58716 | 34806 ft | 456 kts | 301° |
| 2026-05-05 18:55 | 42.33232 | 26.54955 | 34995 ft | 456 kts | 301° |
| 2026-05-05 18:56 | 42.34761 | 26.51208 | 35200 ft | 455 kts | 301° |
| 2026-05-05 18:56 | 42.36286 | 26.47468 | 35407 ft | 455 kts | 301° |
| 2026-05-05 18:56 | 42.37810 | 26.43724 | 35579 ft | 454 kts | 301° |
| 2026-05-05 18:56 | 42.39331 | 26.39982 | 35757 ft | 454 kts | 301° |
| 2026-05-05 18:57 | 42.40855 | 26.36229 | 35925 ft | 454 kts | 301° |
| 2026-05-05 18:57 | 42.42371 | 26.32491 | 36116 ft | 454 kts | 301° |
| 2026-05-05 18:57 | 42.43888 | 26.28745 | 36282 ft | 454 kts | 301° |
| 2026-05-05 18:57 | 42.45405 | 26.24993 | 36460 ft | 454 kts | 301° |
| 2026-05-05 18:58 | 42.46898 | 26.21297 | 36623 ft | 453 kts | 301° |
| 2026-05-05 18:58 | 42.48409 | 26.17551 | 36808 ft | 453 kts | 301° |
| 2026-05-05 18:58 | 42.49918 | 26.13805 | 36983 ft | 453 kts | 301° |
| 2026-05-05 18:58 | 42.51426 | 26.10059 | 37158 ft | 453 kts | 301° |
| 2026-05-05 18:59 | 42.52928 | 26.06319 | 37325 ft | 452 kts | 301° |
| 2026-05-05 18:59 | 42.54432 | 26.02572 | 37482 ft | 452 kts | 301° |
| 2026-05-05 18:59 | 42.55935 | 25.98823 | 37647 ft | 452 kts | 301° |
| 2026-05-05 18:59 | 42.57438 | 25.95069 | 37809 ft | 452 kts | 301° |
| 2026-05-05 19:00 | 42.58935 | 25.91322 | 38000 ft | 452 kts | 301° |
| 2026-05-05 19:00 | 42.60432 | 25.87575 | 38149 ft | 451 kts | 301° |
| 2026-05-05 19:00 | 42.61926 | 25.83827 | 38324 ft | 451 kts | 300° |
| 2026-05-05 19:00 | 42.63416 | 25.80086 | 38476 ft | 451 kts | 300° |
| 2026-05-05 19:01 | 42.64907 | 25.76336 | 38635 ft | 451 kts | 300° |
| 2026-05-05 19:01 | 42.66396 | 25.72588 | 38769 ft | 451 kts | 300° |
| 2026-05-05 19:01 | 42.67885 | 25.68835 | 38874 ft | 451 kts | 300° |
| 2026-05-05 19:01 | 42.69371 | 25.65083 | 39003 ft | 451 kts | 300° |
| 2026-05-05 19:02 | 42.70855 | 25.61332 | 39131 ft | 450 kts | 300° |
| 2026-05-05 19:02 | 42.72339 | 25.57576 | 39238 ft | 451 kts | 300° |
| 2026-05-05 19:02 | 42.73820 | 25.53823 | 39351 ft | 450 kts | 300° |
| 2026-05-05 19:02 | 42.75300 | 25.50066 | 39460 ft | 451 kts | 300° |
| 2026-05-05 19:03 | 42.76780 | 25.46306 | 39563 ft | 451 kts | 300° |
| 2026-05-05 19:03 | 42.78240 | 25.42592 | 39671 ft | 451 kts | 300° |
| 2026-05-05 19:03 | 42.81193 | 25.35065 | 39877 ft | 451 kts | 300° |
| 2026-05-05 19:04 | 42.84150 | 25.27508 | 40023 ft | 453 kts | 300° |
| 2026-05-05 19:04 | 42.87118 | 25.19901 | 40025 ft | 456 kts | 300° |
| 2026-05-05 19:05 | 42.90102 | 25.12235 | 40026 ft | 459 kts | 299° |
| 2026-05-05 19:05 | 42.93090 | 25.04536 | 40041 ft | 460 kts | 299° |
| 2026-05-05 19:06 | 42.96084 | 24.96801 | 40042 ft | 461 kts | 299° |
| 2026-05-05 19:06 | 42.99077 | 24.89048 | 40032 ft | 462 kts | 299° |
| 2026-05-05 19:07 | 43.01562 | 24.82595 | 40037 ft | 461 kts | 299° |
| 2026-05-05 19:07 | 43.05050 | 24.73513 | 40012 ft | 462 kts | 299° |
| 2026-05-05 19:08 | 43.08030 | 24.65731 | 39984 ft | 462 kts | 299° |
| 2026-05-05 19:08 | 43.11004 | 24.57939 | 39990 ft | 462 kts | 299° |
| 2026-05-05 19:09 | 43.13975 | 24.50138 | 39985 ft | 462 kts | 299° |
| 2026-05-05 19:09 | 43.16936 | 24.42340 | 39981 ft | 461 kts | 299° |
| 2026-05-05 19:10 | 43.19872 | 24.34589 | 39977 ft | 461 kts | 298° |
| 2026-05-05 19:10 | 43.22819 | 24.26784 | 39978 ft | 461 kts | 298° |
| 2026-05-05 19:11 | 43.25281 | 24.20248 | 39973 ft | 461 kts | 298° |
| 2026-05-05 19:11 | 43.28216 | 24.12436 | 39974 ft | 460 kts | 298° |
| 2026-05-05 19:12 | 43.31617 | 24.03358 | 39974 ft | 460 kts | 298° |
| 2026-05-05 19:12 | 43.34536 | 23.95542 | 39966 ft | 460 kts | 298° |
| 2026-05-05 19:13 | 43.36977 | 23.88991 | 39966 ft | 459 kts | 298° |
| 2026-05-05 19:13 | 43.39882 | 23.81171 | 39967 ft | 459 kts | 298° |
| 2026-05-05 19:14 | 43.42778 | 23.73356 | 39965 ft | 459 kts | 298° |
| 2026-05-05 19:14 | 43.45670 | 23.65531 | 39970 ft | 458 kts | 298° |
| 2026-05-05 19:15 | 43.48533 | 23.57762 | 39958 ft | 458 kts | 298° |
| 2026-05-05 19:15 | 43.51411 | 23.49929 | 39950 ft | 458 kts | 298° |
| 2026-05-05 19:16 | 43.54282 | 23.42094 | 39949 ft | 458 kts | 298° |
| 2026-05-05 19:16 | 43.57145 | 23.34256 | 39956 ft | 457 kts | 298° |
| 2026-05-05 19:17 | 43.60002 | 23.26415 | 39970 ft | 457 kts | 297° |
| 2026-05-05 19:17 | 43.62853 | 23.18570 | 39966 ft | 457 kts | 297° |
| 2026-05-05 19:18 | 43.65694 | 23.10727 | 39950 ft | 457 kts | 297° |
| 2026-05-05 19:18 | 43.68530 | 23.02877 | 39943 ft | 457 kts | 297° |
| 2026-05-05 19:19 | 43.71359 | 22.95025 | 39944 ft | 456 kts | 297° |
| 2026-05-05 19:19 | 43.74179 | 22.87173 | 39957 ft | 456 kts | 297° |
| 2026-05-05 19:20 | 43.76996 | 22.79312 | 39941 ft | 456 kts | 297° |
| 2026-05-05 19:20 | 43.79804 | 22.71450 | 39954 ft | 456 kts | 297° |
| 2026-05-05 19:21 | 43.82603 | 22.63590 | 39955 ft | 455 kts | 297° |
| 2026-05-05 19:21 | 43.85397 | 22.55731 | 39983 ft | 455 kts | 297° |
| 2026-05-05 19:22 | 43.88188 | 22.47866 | 39981 ft | 455 kts | 297° |
| 2026-05-05 19:22 | 43.91060 | 22.40051 | 39985 ft | 454 kts | 301° |
| 2026-05-05 19:23 | 43.94703 | 22.32909 | 39982 ft | 454 kts | 306° |
| 2026-05-05 19:23 | 43.98465 | 22.25866 | 39984 ft | 454 kts | 307° |
| 2026-05-05 19:24 | 44.02291 | 22.18889 | 39982 ft | 454 kts | 307° |
| 2026-05-05 19:24 | 44.06146 | 22.11918 | 39987 ft | 455 kts | 307° |
| 2026-05-05 19:25 | 44.09998 | 22.04939 | 39988 ft | 455 kts | 307° |
| 2026-05-05 19:25 | 44.13820 | 21.97988 | 39989 ft | 455 kts | 307° |
| 2026-05-05 19:26 | 44.17661 | 21.90981 | 39988 ft | 455 kts | 307° |
| 2026-05-05 19:26 | 44.21500 | 21.83958 | 39982 ft | 455 kts | 307° |
| 2026-05-05 19:27 | 44.25333 | 21.76929 | 39981 ft | 456 kts | 307° |
| 2026-05-05 19:27 | 44.29167 | 21.69881 | 39979 ft | 456 kts | 307° |
| 2026-05-05 19:28 | 44.33001 | 21.62817 | 39972 ft | 456 kts | 307° |
| 2026-05-05 19:28 | 44.36824 | 21.55754 | 39966 ft | 456 kts | 307° |
| 2026-05-05 19:29 | 44.40650 | 21.48672 | 39961 ft | 456 kts | 307° |
| 2026-05-05 19:29 | 44.44471 | 21.41578 | 39957 ft | 456 kts | 307° |
| 2026-05-05 19:30 | 44.48288 | 21.34475 | 39951 ft | 457 kts | 307° |
| 2026-05-05 19:30 | 44.52106 | 21.27353 | 39950 ft | 457 kts | 307° |
| 2026-05-05 19:31 | 44.55886 | 21.20286 | 39943 ft | 457 kts | 306° |
| 2026-05-05 19:31 | 44.59692 | 21.13151 | 39949 ft | 457 kts | 306° |
| 2026-05-05 19:32 | 44.63494 | 21.06006 | 39947 ft | 457 kts | 306° |
| 2026-05-05 19:32 | 44.67292 | 20.98851 | 39940 ft | 457 kts | 306° |
| 2026-05-05 19:33 | 44.71087 | 20.91685 | 39936 ft | 457 kts | 306° |
| 2026-05-05 19:33 | 44.74877 | 20.84509 | 39945 ft | 457 kts | 306° |
| 2026-05-05 19:34 | 44.78660 | 20.77328 | 39943 ft | 457 kts | 306° |
| 2026-05-05 19:35 | 44.84336 | 20.66520 | 39936 ft | 457 kts | 306° |
| 2026-05-05 19:35 | 44.88115 | 20.59302 | 39940 ft | 458 kts | 306° |
| 2026-05-05 19:36 | 44.91891 | 20.52072 | 39956 ft | 458 kts | 306° |
| 2026-05-05 19:36 | 44.95662 | 20.44832 | 39942 ft | 458 kts | 306° |
| 2026-05-05 19:37 | 44.99433 | 20.37575 | 39940 ft | 458 kts | 306° |
| 2026-05-05 19:37 | 45.03201 | 20.30306 | 39938 ft | 458 kts | 305° |
| 2026-05-05 19:38 | 45.06966 | 20.23024 | 39939 ft | 459 kts | 305° |
| 2026-05-05 19:38 | 45.10724 | 20.15735 | 39942 ft | 459 kts | 305° |
| 2026-05-05 19:39 | 45.14456 | 20.08479 | 39943 ft | 459 kts | 305° |
| 2026-05-05 19:39 | 45.18209 | 20.01165 | 39948 ft | 459 kts | 305° |
| 2026-05-05 19:40 | 45.21958 | 19.93838 | 39953 ft | 459 kts | 305° |
| 2026-05-05 19:40 | 45.25701 | 19.86504 | 39953 ft | 459 kts | 305° |
| 2026-05-05 19:41 | 45.29447 | 19.79148 | 39954 ft | 459 kts | 305° |
| 2026-05-05 19:41 | 45.33184 | 19.71788 | 39955 ft | 460 kts | 304° |
| 2026-05-05 19:42 | 45.36922 | 19.64407 | 39957 ft | 460 kts | 304° |
| 2026-05-05 19:42 | 45.40677 | 19.56974 | 39959 ft | 460 kts | 304° |
| 2026-05-05 19:43 | 45.44382 | 19.49620 | 39958 ft | 460 kts | 304° |
| 2026-05-05 19:43 | 45.48108 | 19.42206 | 39957 ft | 460 kts | 304° |
| 2026-05-05 19:44 | 45.51827 | 19.34786 | 39961 ft | 460 kts | 304° |
| 2026-05-05 19:44 | 45.55541 | 19.27357 | 39960 ft | 460 kts | 304° |
| 2026-05-05 19:45 | 45.59252 | 19.19915 | 39961 ft | 460 kts | 304° |
| 2026-05-05 19:45 | 45.62955 | 19.12468 | 39964 ft | 460 kts | 304° |
| 2026-05-05 19:46 | 45.66652 | 19.05014 | 39962 ft | 460 kts | 304° |
| 2026-05-05 19:46 | 45.70347 | 18.97545 | 39963 ft | 460 kts | 304° |
| 2026-05-05 19:47 | 45.74031 | 18.90078 | 39962 ft | 460 kts | 304° |
| 2026-05-05 19:47 | 45.77715 | 18.82592 | 39961 ft | 459 kts | 304° |
| 2026-05-05 19:48 | 45.81390 | 18.75105 | 39959 ft | 459 kts | 304° |
| 2026-05-05 19:48 | 45.85060 | 18.67606 | 39959 ft | 459 kts | 304° |
| 2026-05-05 19:49 | 45.88723 | 18.60103 | 39970 ft | 459 kts | 303° |
| 2026-05-05 19:49 | 45.92356 | 18.52642 | 39977 ft | 459 kts | 303° |
| 2026-05-05 19:50 | 45.96009 | 18.45118 | 39985 ft | 459 kts | 303° |
| 2026-05-05 19:50 | 45.99654 | 18.37591 | 39992 ft | 459 kts | 303° |
| 2026-05-05 19:51 | 46.03294 | 18.30056 | 39994 ft | 459 kts | 303° |
| 2026-05-05 19:51 | 46.06930 | 18.22508 | 39996 ft | 459 kts | 303° |
| 2026-05-05 19:52 | 46.10563 | 18.14944 | 39986 ft | 459 kts | 303° |
| 2026-05-05 19:52 | 46.14190 | 18.07375 | 39978 ft | 459 kts | 303° |
| 2026-05-05 19:53 | 46.17814 | 17.99792 | 39964 ft | 459 kts | 303° |
| 2026-05-05 19:53 | 46.21432 | 17.92200 | 39949 ft | 459 kts | 303° |
| 2026-05-05 19:54 | 46.25049 | 17.84589 | 39940 ft | 459 kts | 303° |
| 2026-05-05 19:54 | 46.28661 | 17.76967 | 39935 ft | 459 kts | 303° |
| 2026-05-05 19:55 | 46.32266 | 17.69342 | 39938 ft | 460 kts | 303° |
| 2026-05-05 19:55 | 46.35873 | 17.61690 | 39934 ft | 460 kts | 303° |
| 2026-05-05 19:56 | 46.39475 | 17.54028 | 39935 ft | 460 kts | 303° |
| 2026-05-05 19:56 | 46.43072 | 17.46355 | 39933 ft | 460 kts | 303° |
| 2026-05-05 19:57 | 46.46663 | 17.38675 | 39917 ft | 460 kts | 302° |
| 2026-05-05 19:57 | 46.50249 | 17.30983 | 39926 ft | 460 kts | 302° |
| 2026-05-05 19:58 | 46.53831 | 17.23278 | 39925 ft | 460 kts | 302° |
| 2026-05-05 19:58 | 46.57402 | 17.15577 | 39949 ft | 460 kts | 302° |
| 2026-05-05 19:59 | 46.60968 | 17.07865 | 39948 ft | 459 kts | 302° |
| 2026-05-05 19:59 | 46.64508 | 17.00189 | 39938 ft | 459 kts | 302° |
| 2026-05-05 20:00 | 46.68062 | 16.92460 | 39926 ft | 459 kts | 302° |
| 2026-05-05 20:00 | 46.71608 | 16.84728 | 39920 ft | 459 kts | 302° |
| 2026-05-05 20:01 | 46.75151 | 16.76980 | 39905 ft | 459 kts | 302° |
| 2026-05-05 20:01 | 46.78117 | 16.70478 | 39894 ft | 459 kts | 302° |
| 2026-05-05 20:02 | 46.81646 | 16.62722 | 39887 ft | 459 kts | 302° |
| 2026-05-05 20:02 | 46.85172 | 16.54949 | 39885 ft | 459 kts | 301° |
| 2026-05-05 20:03 | 46.88670 | 16.47221 | 39880 ft | 459 kts | 301° |
| 2026-05-05 20:03 | 46.92188 | 16.39436 | 39875 ft | 459 kts | 301° |
| 2026-05-05 20:04 | 46.95703 | 16.31639 | 39872 ft | 459 kts | 301° |
| 2026-05-05 20:04 | 46.99194 | 16.23808 | 39869 ft | 459 kts | 299° |
| 2026-05-05 20:05 | 47.02189 | 16.15579 | 39870 ft | 458 kts | 295° |
| 2026-05-05 20:05 | 47.05096 | 16.07279 | 39869 ft | 458 kts | 295° |
| 2026-05-05 20:06 | 47.08021 | 15.98975 | 39869 ft | 458 kts | 295° |
| 2026-05-05 20:06 | 47.10927 | 15.90647 | 39869 ft | 458 kts | 295° |
| 2026-05-05 20:07 | 47.13820 | 15.82311 | 39873 ft | 459 kts | 295° |
| 2026-05-05 20:07 | 47.16712 | 15.73949 | 39871 ft | 459 kts | 295° |
| 2026-05-05 20:08 | 47.19598 | 15.65578 | 39874 ft | 459 kts | 295° |
| 2026-05-05 20:08 | 47.22478 | 15.57200 | 39874 ft | 459 kts | 295° |
| 2026-05-05 20:09 | 47.25353 | 15.48810 | 39878 ft | 459 kts | 294° |
| 2026-05-05 20:09 | 47.28220 | 15.40416 | 39875 ft | 459 kts | 294° |
| 2026-05-05 20:10 | 47.31077 | 15.32025 | 39868 ft | 458 kts | 294° |
| 2026-05-05 20:10 | 47.33929 | 15.23615 | 39867 ft | 458 kts | 294° |
| 2026-05-05 20:11 | 47.36786 | 15.15163 | 39524 ft | 463 kts | 294° |
| 2026-05-05 20:11 | 47.38216 | 15.10924 | 39250 ft | 460 kts | 294° |
| 2026-05-05 20:11 | 47.39634 | 15.06718 | 38979 ft | 456 kts | 294° |
| 2026-05-05 20:11 | 47.41040 | 15.02542 | 38633 ft | 453 kts | 294° |
| 2026-05-05 20:12 | 47.42431 | 14.98398 | 38132 ft | 450 kts | 294° |
| 2026-05-05 20:12 | 47.43797 | 14.94323 | 37628 ft | 446 kts | 294° |
| 2026-05-05 20:12 | 47.45058 | 14.90557 | 37166 ft | 443 kts | 294° |
| 2026-05-05 20:12 | 47.46418 | 14.86488 | 36695 ft | 441 kts | 294° |
| 2026-05-05 20:13 | 47.47785 | 14.82388 | 36224 ft | 439 kts | 294° |
| 2026-05-05 20:13 | 47.49129 | 14.78352 | 35760 ft | 436 kts | 294° |
| 2026-05-05 20:13 | 47.50460 | 14.74348 | 35304 ft | 432 kts | 294° |
| 2026-05-05 20:13 | 47.51761 | 14.70429 | 34871 ft | 429 kts | 294° |
| 2026-05-05 20:14 | 47.53069 | 14.66487 | 34422 ft | 425 kts | 294° |
| 2026-05-05 20:14 | 47.54364 | 14.62573 | 33994 ft | 422 kts | 294° |
| 2026-05-05 20:14 | 47.55651 | 14.58681 | 33514 ft | 419 kts | 294° |
| 2026-05-05 20:14 | 47.56927 | 14.54815 | 33027 ft | 416 kts | 293° |
| 2026-05-05 20:15 | 47.58192 | 14.50983 | 32538 ft | 413 kts | 293° |
| 2026-05-05 20:15 | 47.59447 | 14.47174 | 32082 ft | 410 kts | 293° |
| 2026-05-05 20:15 | 47.60690 | 14.43392 | 31621 ft | 407 kts | 292° |
| 2026-05-05 20:15 | 47.61926 | 14.39622 | 31163 ft | 410 kts | 292° |
| 2026-05-05 20:16 | 47.63201 | 14.35714 | 30728 ft | 431 kts | 292° |
| 2026-05-05 20:16 | 47.64509 | 14.31710 | 30276 ft | 431 kts | 292° |
| 2026-05-05 20:16 | 47.65813 | 14.27724 | 29838 ft | 427 kts | 292° |
| 2026-05-05 20:16 | 47.67101 | 14.23786 | 29327 ft | 422 kts | 292° |
| 2026-05-05 20:17 | 47.68374 | 14.19889 | 28839 ft | 416 kts | 292° |
| 2026-05-05 20:17 | 47.69627 | 14.16035 | 28346 ft | 414 kts | 292° |
| 2026-05-05 20:17 | 47.70869 | 14.12208 | 27865 ft | 411 kts | 292° |
| 2026-05-05 20:17 | 47.72104 | 14.08389 | 27392 ft | 409 kts | 292° |
| 2026-05-05 20:18 | 47.73331 | 14.04595 | 26919 ft | 407 kts | 292° |
| 2026-05-05 20:18 | 47.74551 | 14.00822 | 26464 ft | 404 kts | 292° |
| 2026-05-05 20:18 | 47.75764 | 13.97065 | 26004 ft | 402 kts | 292° |
| 2026-05-05 20:18 | 47.76967 | 13.93334 | 25570 ft | 398 kts | 292° |
| 2026-05-05 20:19 | 47.78155 | 13.89642 | 25130 ft | 395 kts | 291° |
| 2026-05-05 20:19 | 47.79336 | 13.85968 | 24700 ft | 393 kts | 291° |
| 2026-05-05 20:19 | 47.80513 | 13.82300 | 24284 ft | 392 kts | 291° |
| 2026-05-05 20:19 | 47.81683 | 13.78643 | 23857 ft | 390 kts | 291° |
| 2026-05-05 20:20 | 47.82841 | 13.75025 | 23452 ft | 385 kts | 291° |
| 2026-05-05 20:20 | 47.83987 | 13.71433 | 22967 ft | 383 kts | 291° |
| 2026-05-05 20:20 | 47.85126 | 13.67854 | 22484 ft | 382 kts | 291° |
| 2026-05-05 20:20 | 47.86261 | 13.64292 | 22015 ft | 380 kts | 292° |
| 2026-05-05 20:21 | 47.87386 | 13.60757 | 21538 ft | 375 kts | 292° |
| 2026-05-05 20:21 | 47.88501 | 13.57254 | 21086 ft | 372 kts | 292° |
| 2026-05-05 20:21 | 47.89603 | 13.53778 | 20623 ft | 371 kts | 292° |
| 2026-05-05 20:21 | 47.90689 | 13.50349 | 20190 ft | 369 kts | 292° |
| 2026-05-05 20:22 | 47.91792 | 13.46858 | 19735 ft | 367 kts | 292° |
| 2026-05-05 20:22 | 47.92874 | 13.43431 | 19307 ft | 364 kts | 292° |
| 2026-05-05 20:22 | 47.93948 | 13.40023 | 18884 ft | 362 kts | 292° |
| 2026-05-05 20:22 | 47.95017 | 13.36633 | 18461 ft | 360 kts | 292° |
| 2026-05-05 20:23 | 47.96079 | 13.33262 | 18032 ft | 358 kts | 292° |
| 2026-05-05 20:23 | 47.97134 | 13.29904 | 17544 ft | 356 kts | 292° |
| 2026-05-05 20:23 | 47.98181 | 13.26567 | 17075 ft | 354 kts | 292° |
| 2026-05-05 20:23 | 47.99211 | 13.23281 | 16675 ft | 346 kts | 292° |
| 2026-05-05 20:24 | 48.00216 | 13.20073 | 16290 ft | 337 kts | 292° |
| 2026-05-05 20:24 | 48.01194 | 13.16945 | 15896 ft | 328 kts | 292° |
| 2026-05-05 20:24 | 48.02147 | 13.13893 | 15524 ft | 320 kts | 292° |
| 2026-05-05 20:24 | 48.03078 | 13.10908 | 15159 ft | 313 kts | 292° |
| 2026-05-05 20:25 | 48.03985 | 13.07991 | 14798 ft | 306 kts | 292° |
| 2026-05-05 20:25 | 48.04874 | 13.05129 | 14429 ft | 304 kts | 292° |
| 2026-05-05 20:25 | 48.05755 | 13.02289 | 14081 ft | 305 kts | 292° |
| 2026-05-05 20:25 | 48.06645 | 12.99400 | 13745 ft | 300 kts | 292° |
| 2026-05-05 20:26 | 48.07518 | 12.96560 | 13442 ft | 301 kts | 292° |
| 2026-05-05 20:26 | 48.08379 | 12.93753 | 13120 ft | 300 kts | 292° |
| 2026-05-05 20:26 | 48.09249 | 12.90938 | 12810 ft | 296 kts | 292° |
| 2026-05-05 20:26 | 48.10156 | 12.88178 | 12503 ft | 296 kts | 294° |
| 2026-05-05 20:27 | 48.11090 | 12.85438 | 12198 ft | 295 kts | 294° |
| 2026-05-05 20:27 | 48.12018 | 12.82722 | 11887 ft | 292 kts | 294° |
| 2026-05-05 20:27 | 48.12947 | 12.80021 | 11584 ft | 291 kts | 294° |
| 2026-05-05 20:27 | 48.13872 | 12.77338 | 11288 ft | 289 kts | 294° |
| 2026-05-05 20:28 | 48.14790 | 12.74671 | 11013 ft | 287 kts | 294° |
| 2026-05-05 20:28 | 48.15706 | 12.72013 | 10765 ft | 287 kts | 294° |
| 2026-05-05 20:28 | 48.16616 | 12.69371 | 10523 ft | 286 kts | 294° |
| 2026-05-05 20:28 | 48.17529 | 12.66730 | 10284 ft | 285 kts | 294° |
| 2026-05-05 20:29 | 48.18437 | 12.64102 | 10047 ft | 283 kts | 294° |
| 2026-05-05 20:29 | 48.19340 | 12.61490 | 9806 ft | 282 kts | 294° |
| 2026-05-05 20:29 | 48.20240 | 12.58883 | 9547 ft | 281 kts | 294° |
| 2026-05-05 20:29 | 48.21133 | 12.56284 | 9275 ft | 280 kts | 294° |
| 2026-05-05 20:30 | 48.22015 | 12.53697 | 9043 ft | 278 kts | 294° |
| 2026-05-05 20:30 | 48.22889 | 12.51115 | 8773 ft | 276 kts | 294° |
| 2026-05-05 20:30 | 48.23737 | 12.48603 | 8509 ft | 263 kts | 294° |
| 2026-05-05 20:30 | 48.24542 | 12.46215 | 8248 ft | 251 kts | 294° |
| 2026-05-05 20:31 | 48.25324 | 12.43886 | 8007 ft | 254 kts | 294° |
| 2026-05-05 20:31 | 48.26117 | 12.41501 | 7753 ft | 261 kts | 294° |
| 2026-05-05 20:31 | 48.26923 | 12.39065 | 7492 ft | 260 kts | 294° |
| 2026-05-05 20:31 | 48.27717 | 12.36651 | 7254 ft | 257 kts | 294° |
| 2026-05-05 20:32 | 48.28250 | 12.35025 | 7096 ft | 257 kts | 294° |
| 2026-05-05 20:32 | 48.28477 | 12.34329 | 7029 ft | 257 kts | 294° |
| 2026-05-05 20:32 | 48.29254 | 12.31943 | 6886 ft | 255 kts | 294° |
| 2026-05-05 20:32 | 48.30030 | 12.29552 | 6750 ft | 254 kts | 294° |
| 2026-05-05 20:33 | 48.30804 | 12.27167 | 6637 ft | 254 kts | 294° |
| 2026-05-05 20:33 | 48.31579 | 12.24787 | 6517 ft | 253 kts | 294° |
| 2026-05-05 20:33 | 48.32352 | 12.22410 | 6393 ft | 253 kts | 294° |
| 2026-05-05 20:33 | 48.33122 | 12.20046 | 6279 ft | 248 kts | 294° |
| 2026-05-05 20:34 | 48.33857 | 12.17793 | 6093 ft | 233 kts | 294° |
| 2026-05-05 20:34 | 48.34551 | 12.15676 | 5926 ft | 219 kts | 294° |
| 2026-05-05 20:34 | 48.35212 | 12.13676 | 5677 ft | 209 kts | 294° |
| 2026-05-05 20:34 | 48.35848 | 12.11748 | 5419 ft | 203 kts | 294° |
| 2026-05-05 20:35 | 48.36472 | 12.09850 | 5175 ft | 203 kts | 293° |
| 2026-05-05 20:35 | 48.36679 | 12.07821 | 5006 ft | 197 kts | 265° |
| 2026-05-05 20:35 | 48.36486 | 12.05745 | 4777 ft | 200 kts | 261° |
| 2026-05-05 20:35 | 48.36275 | 12.03707 | 4537 ft | 194 kts | 262° |
| 2026-05-05 20:36 | 48.36110 | 12.01758 | 4283 ft | 181 kts | 264° |
| 2026-05-05 20:36 | 48.35972 | 11.99960 | 4041 ft | 167 kts | 263° |
| 2026-05-05 20:36 | 48.35844 | 11.98288 | 3837 ft | 154 kts | 264° |
| 2026-05-05 20:36 | 48.35721 | 11.96700 | 3641 ft | 155 kts | 264° |
| 2026-05-05 20:37 | 48.35596 | 11.95103 | 3434 ft | 149 kts | 264° |
| 2026-05-05 20:37 | 48.35524 | 11.94121 | 3302 ft | 138 kts | 264° |
| 2026-05-05 20:37 | 48.35380 | 11.92221 | 3072 ft | 139 kts | 264° |
| 2026-05-05 20:37 | 48.35272 | 11.90813 | 2891 ft | 138 kts | 264° |
| 2026-05-05 20:38 | 48.35163 | 11.89355 | 2736 ft | 137 kts | 264° |
| 2026-05-05 20:38 | 48.35051 | 11.87960 | 2465 ft | 139 kts | 263° |
| 2026-05-05 20:38 | 48.34939 | 11.86495 | 2255 ft | 142 kts | 264° |
| 2026-05-05 20:38 | 48.34819 | 11.84986 | 2109 ft | 147 kts | 262° |
| 2026-05-05 20:39 | 48.34705 | 11.83494 | 1882 ft | 142 kts | 265° |
| 2026-05-05 20:39 | 48.34596 | 11.81995 | 1696 ft | 146 kts | 263° |
| 2026-05-05 20:39 | 48.34478 | 11.80495 | 1528 ft | 143 kts | 263° |
| 2026-05-05 20:39 | 48.34371 | 11.79068 | 1470 ft | 120 kts | 263° |
| 2026-05-05 20:40 | 48.34289 | 11.77987 | 1472 ft | 92 kts | 263° |
| 2026-05-05 20:40 | 48.34247 | 11.77438 | 1470 ft | 29 kts | 265° |
| 2026-05-05 20:40 | 48.34289 | 11.77156 | 1468 ft | 20 kts | 294° |
| 2026-05-05 20:40 | 48.34342 | 11.76968 | 1465 ft | 18 kts | 293° |
| 2026-05-05 20:41 | 48.34393 | 11.76792 | 1468 ft | 18 kts | 293° |
| 2026-05-05 20:41 | 48.34482 | 11.76694 | 1462 ft | 17 kts | 352° |
| 2026-05-05 20:41 | 48.34570 | 11.76743 | 1468 ft | 11 kts | 70° |
| 2026-05-05 20:41 | 48.34582 | 11.76863 | 1462 ft | 12 kts | 82° |
| 2026-05-05 20:42 | 48.34593 | 11.77005 | 1466 ft | 15 kts | 84° |
| 2026-05-05 20:42 | 48.34605 | 11.77173 | 1472 ft | 17 kts | 84° |
| 2026-05-05 20:42 | 48.34618 | 11.77357 | 1467 ft | 18 kts | 83° |
| 2026-05-05 20:42 | 48.34634 | 11.77552 | 1472 ft | 19 kts | 83° |
| 2026-05-05 20:43 | 48.34651 | 11.77755 | 1464 ft | 20 kts | 83° |
| 2026-05-05 20:43 | 48.34681 | 11.77892 | 1470 ft | 12 kts | 40° |
| 2026-05-05 20:43 | 48.34748 | 11.77884 | 1473 ft | 8 kts | 348° |
| 2026-05-05 20:43 | 48.34765 | 11.77881 | 1468 ft | 2 kts | 352° |
| 2026-05-05 20:44 | 48.34809 | 11.77874 | 1463 ft | 9 kts | 353° |
| 2026-05-05 20:44 | 48.34873 | 11.77862 | 1463 ft | 10 kts | 353° |
| 2026-05-05 20:44 | 48.34949 | 11.77849 | 1468 ft | 11 kts | 353° |
| 2026-05-05 20:44 | 48.35033 | 11.77835 | 1466 ft | 13 kts | 353° |
| 2026-05-05 20:45 | 48.35153 | 11.77828 | 1464 ft | 4 kts | 38° |
| 2026-05-05 20:45 | 48.35150 | 11.77860 | 1466 ft | 3 kts | 97° |
| 2026-05-05 20:45 | 48.35139 | 11.77888 | 1461 ft | 4 kts | 123° |
| 2026-05-05 20:46 | 48.35126 | 11.77924 | 1465 ft | 3 kts | 118° |
| 2026-05-05 20:46 | 48.35126 | 11.77925 | 1465 ft | 0 kts | 118° |